createdAt,value
2018-03-24T00:00:14.884Z,99.99
2018-03-24T00:01:14.861Z,99.99
2018-03-24T00:02:14.890Z,99.99
2018-03-24T00:03:14.824Z,99.99
2018-03-24T00:04:14.807Z,99.99
2018-03-24T00:05:14.813Z,99.99
2018-03-24T00:06:14.843Z,99.99
2018-03-24T00:07:14.761Z,99.99
2018-03-24T00:08:14.757Z,99.99
2018-03-24T00:09:14.744Z,99.99
2018-03-24T00:10:14.721Z,99.99
2018-03-24T00:11:14.702Z,99.99
2018-03-24T00:12:14.697Z,99.99
2018-03-24T00:13:14.653Z,99.99
2018-03-24T00:14:14.670Z,99.99
2018-03-24T00:15:14.653Z,99.99
2018-03-24T00:16:14.639Z,99.99
2018-03-24T00:17:14.625Z,99.99
2018-03-24T00:18:14.609Z,99.99
2018-03-24T00:19:14.558Z,99.99
2018-03-24T00:20:14.537Z,99.99
2018-03-24T00:21:14.552Z,99.99
2018-03-24T00:22:14.521Z,99.99
2018-03-24T00:23:14.529Z,99.99
2018-03-24T00:24:14.495Z,99.99
2018-03-24T00:25:14.487Z,99.99
2018-03-24T00:26:14.465Z,99.99
2018-03-24T00:27:14.427Z,99.99
2018-03-24T00:28:14.500Z,99.99
2018-03-24T00:29:14.397Z,99.99
2018-03-24T00:30:14.396Z,99.99
2018-03-24T00:31:14.383Z,99.99
2018-03-24T00:32:14.365Z,99.99
2018-03-24T00:33:14.353Z,99.99
2018-03-24T00:34:14.328Z,99.99
2018-03-24T00:35:14.364Z,99.99
2018-03-24T00:36:14.295Z,99.99
2018-03-24T00:37:14.276Z,99.99
2018-03-24T00:38:14.285Z,99.99
2018-03-24T00:39:14.230Z,99.99
2018-03-24T00:40:14.214Z,99.99
2018-03-24T00:41:14.259Z,99.99
2018-03-24T00:42:14.192Z,99.99
2018-03-24T00:43:14.180Z,99.99
2018-03-24T00:44:14.172Z,99.99
2018-03-24T00:45:14.142Z,99.99
2018-03-24T00:46:14.127Z,99.99
2018-03-24T00:47:14.110Z,99.99
2018-03-24T00:48:14.090Z,99.99
2018-03-24T00:49:14.083Z,99.99
2018-03-24T00:50:14.059Z,99.99
2018-03-24T00:51:14.043Z,99.99
2018-03-24T00:52:14.112Z,99.99
2018-03-24T00:53:14.042Z,99.99
2018-03-24T00:54:14.012Z,99.99
2018-03-24T00:55:13.978Z,99.99
2018-03-24T00:56:14.018Z,99.99
2018-03-24T00:57:13.964Z,99.99
2018-03-24T00:58:13.982Z,99.99
2018-03-24T00:59:13.914Z,99.99
2018-03-24T01:00:13.895Z,99.99
2018-03-24T01:01:13.873Z,99.99
2018-03-24T01:02:13.889Z,99.99
2018-03-24T01:03:13.910Z,99.99
2018-03-24T01:04:13.851Z,99.99
2018-03-24T01:05:13.826Z,99.99
2018-03-24T01:06:13.813Z,99.99
2018-03-24T01:07:13.795Z,99.99
2018-03-24T01:08:13.789Z,99.99
2018-03-24T01:09:13.767Z,99.99
2018-03-24T01:10:13.740Z,99.99
2018-03-24T01:11:13.742Z,99.99
2018-03-24T01:12:13.747Z,99.99
2018-03-24T01:13:13.695Z,99.99
2018-03-24T01:14:13.675Z,99.99
2018-03-24T01:15:13.691Z,99.99
2018-03-24T01:16:13.647Z,99.99
2018-03-24T01:17:13.653Z,99.99
2018-03-24T01:18:13.611Z,99.99
2018-03-24T01:19:13.629Z,99.99
2018-03-24T01:20:13.583Z,99.99
2018-03-24T01:21:13.557Z,99.99
2018-03-24T01:22:13.566Z,99.99
2018-03-24T01:23:13.531Z,99.99
2018-03-24T01:24:13.531Z,99.99
2018-03-24T01:25:13.498Z,99.99
2018-03-24T01:26:13.496Z,99.99
2018-03-24T01:27:13.473Z,99.99
2018-03-24T01:28:13.470Z,99.99
2018-03-24T01:29:13.434Z,99.99
2018-03-24T01:30:13.444Z,99.99
2018-03-24T01:31:13.596Z,99.99
2018-03-24T01:32:13.384Z,99.99
2018-03-24T01:33:13.354Z,99.99
2018-03-24T01:34:13.374Z,99.99
2018-03-24T01:35:13.316Z,99.99
2018-03-24T01:36:13.327Z,99.99
2018-03-24T01:37:13.341Z,99.99
2018-03-24T01:38:13.276Z,99.99
2018-03-24T01:39:13.261Z,99.99
2018-03-24T01:40:13.240Z,99.99
2018-03-24T01:41:13.237Z,99.99
2018-03-24T01:42:13.263Z,99.99
2018-03-24T01:43:13.201Z,99.99
2018-03-24T01:44:13.179Z,99.99
2018-03-24T01:45:13.152Z,99.99
2018-03-24T01:46:13.143Z,99.99
2018-03-24T01:47:13.151Z,99.99
2018-03-24T01:48:13.118Z,99.99
2018-03-24T01:49:13.170Z,99.99
2018-03-24T01:50:13.096Z,99.99
2018-03-24T01:51:13.079Z,99.99
2018-03-24T01:52:13.045Z,99.99
2018-03-24T01:53:13.028Z,99.99
2018-03-24T01:54:13.016Z,99.99
2018-03-24T01:55:13.014Z,99.99
2018-03-24T01:56:12.983Z,99.99
2018-03-24T01:57:12.954Z,99.99
2018-03-24T01:58:12.949Z,99.99
2018-03-24T01:59:12.965Z,99.99
2018-03-24T02:00:12.910Z,99.99
2018-03-24T02:01:12.927Z,99.99
2018-03-24T02:02:12.903Z,99.99
2018-03-24T02:03:12.862Z,99.99
2018-03-24T02:04:12.871Z,99.99
2018-03-24T02:05:12.820Z,99.99
2018-03-24T02:06:12.800Z,99.99
2018-03-24T02:07:12.854Z,99.99
2018-03-24T02:08:12.779Z,99.99
2018-03-24T02:09:12.750Z,99.99
2018-03-24T02:10:12.773Z,99.99
2018-03-24T02:11:12.718Z,99.99
2018-03-24T02:12:12.695Z,99.99
2018-03-24T02:13:12.690Z,99.99
2018-03-24T02:14:12.666Z,99.99
2018-03-24T02:15:12.654Z,99.99
2018-03-24T02:16:12.638Z,99.99
2018-03-24T02:17:12.615Z,99.99
2018-03-24T02:18:12.627Z,99.99
2018-03-24T02:19:12.620Z,99.99
2018-03-24T02:20:12.557Z,99.99
2018-03-24T02:21:12.545Z,99.99
2018-03-24T02:22:12.552Z,99.99
2018-03-24T02:23:12.523Z,99.99
2018-03-24T02:24:12.530Z,99.99
2018-03-24T02:25:12.475Z,99.99
2018-03-24T02:26:12.470Z,99.99
2018-03-24T02:27:12.463Z,99.99
2018-03-24T02:28:12.578Z,99.99
2018-03-24T02:29:12.406Z,99.99
2018-03-24T02:30:12.412Z,99.99
2018-03-24T02:31:12.389Z,99.99
2018-03-24T02:32:12.357Z,99.99
2018-03-24T02:33:12.367Z,99.99
2018-03-24T02:34:12.576Z,99.99
2018-03-24T02:35:12.351Z,99.99
2018-03-24T02:36:12.308Z,99.99
2018-03-24T02:37:12.277Z,99.99
2018-03-24T02:38:12.288Z,99.99
2018-03-24T02:39:12.260Z,99.99
2018-03-24T02:40:12.233Z,99.99
2018-03-24T02:41:12.218Z,99.99
2018-03-24T02:42:12.223Z,99.99
2018-03-24T02:43:12.181Z,99.99
2018-03-24T02:44:12.156Z,99.99
2018-03-24T02:45:12.180Z,99.99
2018-03-24T02:46:12.118Z,99.99
2018-03-24T02:47:12.111Z,99.99
2018-03-24T02:48:12.098Z,99.99
2018-03-24T02:49:12.088Z,99.99
2018-03-24T02:50:12.087Z,99.99
2018-03-24T02:51:12.069Z,99.99
2018-03-24T02:52:12.009Z,99.99
2018-03-24T02:53:12.017Z,99.99
2018-03-24T02:54:12.000Z,99.99
2018-03-24T02:55:11.994Z,99.99
2018-03-24T02:56:11.970Z,99.99
2018-03-24T02:57:11.923Z,99.99
2018-03-24T02:58:11.918Z,99.99
2018-03-24T02:59:11.945Z,99.99
2018-03-24T03:00:11.882Z,99.99
2018-03-24T03:01:11.875Z,99.99
2018-03-24T03:02:11.850Z,99.99
2018-03-24T03:03:11.831Z,99.99
2018-03-24T03:04:11.810Z,99.99
2018-03-24T03:05:11.808Z,99.99
2018-03-24T03:06:11.778Z,99.99
2018-03-24T03:07:11.756Z,99.99
2018-03-24T03:08:11.747Z,99.99
2018-03-24T03:09:11.726Z,99.99
2018-03-24T03:10:11.766Z,99.99
2018-03-24T03:11:11.685Z,99.99
2018-03-24T03:12:11.677Z,99.99
2018-03-24T03:13:11.685Z,99.99
2018-03-24T03:14:11.687Z,99.99
2018-03-24T03:15:11.629Z,99.99
2018-03-24T03:16:11.623Z,99.99
2018-03-24T03:17:11.599Z,99.99
2018-03-24T03:18:11.591Z,99.99
2018-03-24T03:19:11.546Z,99.99
2018-03-24T03:20:11.541Z,99.99
2018-03-24T03:21:11.589Z,99.99
2018-03-24T03:22:11.510Z,99.99
2018-03-24T03:23:11.491Z,99.99
2018-03-24T03:24:11.475Z,99.99
2018-03-24T03:25:11.460Z,99.99
2018-03-24T03:26:11.431Z,99.99
2018-03-24T03:27:11.443Z,99.99
2018-03-24T03:28:11.415Z,99.99
2018-03-24T03:29:11.402Z,99.99
2018-03-24T03:30:11.389Z,99.99
2018-03-24T03:31:11.370Z,99.99
2018-03-24T03:32:11.369Z,99.99
2018-03-24T03:33:11.305Z,99.99
2018-03-24T03:34:11.308Z,99.99
2018-03-24T03:35:11.294Z,99.99
2018-03-24T03:36:11.583Z,99.99
2018-03-24T03:37:11.243Z,99.99
2018-03-24T03:38:11.238Z,99.99
2018-03-24T03:39:11.243Z,99.99
2018-03-24T03:40:11.211Z,99.99
2018-03-24T03:41:11.173Z,99.99
2018-03-24T03:42:11.179Z,99.99
2018-03-24T03:43:11.143Z,99.99
2018-03-24T03:44:11.136Z,99.99
2018-03-24T03:45:11.117Z,99.99
2018-03-24T03:46:11.146Z,99.99
2018-03-24T03:47:11.067Z,99.99
2018-03-24T03:48:11.068Z,99.99
2018-03-24T03:49:11.027Z,99.99
2018-03-24T03:50:11.023Z,99.99
2018-03-24T03:51:10.994Z,99.99
2018-03-24T03:52:10.997Z,99.99
2018-03-24T03:53:10.999Z,99.99
2018-03-24T03:54:10.962Z,99.99
2018-03-24T03:55:10.927Z,99.99
2018-03-24T03:56:10.918Z,99.99
2018-03-24T03:57:11.273Z,99.99
2018-03-24T03:58:10.898Z,99.99
2018-03-24T03:59:10.890Z,99.99
2018-03-24T04:00:10.874Z,99.99
2018-03-24T04:01:10.822Z,99.99
2018-03-24T04:02:10.821Z,99.99
2018-03-24T04:03:10.844Z,99.99
2018-03-24T04:04:10.789Z,99.99
2018-03-24T04:05:10.774Z,99.99
2018-03-24T04:06:10.736Z,99.99
2018-03-24T04:07:10.735Z,99.99
2018-03-24T04:08:10.722Z,99.99
2018-03-24T04:09:10.701Z,99.99
2018-03-24T04:10:10.682Z,99.99
2018-03-24T04:11:10.668Z,99.99
2018-03-24T04:12:10.635Z,99.99
2018-03-24T04:13:10.633Z,99.99
2018-03-24T04:14:10.642Z,99.99
2018-03-24T04:15:10.912Z,99.99
2018-03-24T04:16:10.595Z,99.99
2018-03-24T04:17:10.552Z,99.99
2018-03-24T04:18:10.552Z,99.99
2018-03-24T04:19:10.545Z,99.99
2018-03-24T04:20:10.511Z,99.99
2018-03-24T04:21:10.493Z,99.99
2018-03-24T04:22:10.475Z,99.99
2018-03-24T04:23:10.446Z,99.99
2018-03-24T04:24:10.448Z,99.99
2018-03-24T04:25:10.421Z,99.99
2018-03-24T04:26:10.410Z,99.99
2018-03-24T04:27:10.382Z,99.99
2018-03-24T04:28:10.389Z,99.99
2018-03-24T04:29:10.423Z,99.99
2018-03-24T04:30:10.328Z,99.99
2018-03-24T04:31:10.347Z,99.99
2018-03-24T04:32:10.301Z,99.99
2018-03-24T04:33:10.300Z,99.99
2018-03-24T04:34:10.260Z,99.99
2018-03-24T04:35:10.322Z,99.99
2018-03-24T04:36:10.249Z,99.99
2018-03-24T04:37:10.232Z,99.99
2018-03-24T04:38:10.195Z,99.99
2018-03-24T04:39:10.176Z,99.99
2018-03-24T04:40:10.169Z,99.99
2018-03-24T04:41:10.198Z,99.99
2018-03-24T04:42:10.154Z,99.99
2018-03-24T04:43:10.135Z,99.99
2018-03-24T04:44:10.116Z,99.99
2018-03-24T04:45:10.094Z,99.99
2018-03-24T04:46:10.113Z,99.99
2018-03-24T04:47:10.041Z,99.99
2018-03-24T04:48:10.050Z,99.99
2018-03-24T04:49:10.038Z,99.99
2018-03-24T04:50:10.004Z,99.99
2018-03-24T04:51:09.975Z,99.99
2018-03-24T04:52:09.956Z,99.99
2018-03-24T04:53:09.962Z,99.99
2018-03-24T04:54:09.973Z,99.99
2018-03-24T04:55:09.946Z,99.99
2018-03-24T04:56:09.897Z,99.99
2018-03-24T04:57:09.889Z,99.99
2018-03-24T04:58:09.864Z,99.99
2018-03-24T04:59:09.905Z,99.99
2018-03-24T05:00:09.868Z,99.99
2018-03-24T05:01:09.798Z,99.99
2018-03-24T05:02:09.837Z,99.99
2018-03-24T05:03:09.775Z,99.99
2018-03-24T05:04:09.751Z,99.99
2018-03-24T05:05:09.807Z,99.99
2018-03-24T05:06:09.711Z,99.99
2018-03-24T05:07:09.712Z,99.99
2018-03-24T05:08:09.701Z,99.99
2018-03-24T05:09:09.660Z,99.99
2018-03-24T05:10:09.644Z,99.99
2018-03-24T05:11:09.665Z,99.99
2018-03-24T05:12:09.614Z,99.99
2018-03-24T05:13:09.602Z,99.99
2018-03-24T05:14:09.589Z,99.99
2018-03-24T05:15:09.583Z,99.99
2018-03-24T05:16:09.585Z,99.99
2018-03-24T05:17:09.520Z,99.99
2018-03-24T05:18:09.525Z,99.99
2018-03-24T05:19:09.497Z,99.99
2018-03-24T05:20:09.482Z,99.99
2018-03-24T05:21:09.470Z,99.99
2018-03-24T05:22:09.494Z,99.99
2018-03-24T05:23:09.421Z,99.99
2018-03-24T05:24:09.422Z,99.99
2018-03-24T05:25:09.382Z,99.99
2018-03-24T05:26:09.379Z,99.99
2018-03-24T05:27:09.398Z,99.99
2018-03-24T05:28:09.331Z,99.99
2018-03-24T05:29:09.339Z,99.99
2018-03-24T05:30:09.288Z,99.99
2018-03-24T05:31:09.307Z,99.99
2018-03-24T05:32:09.351Z,99.99
2018-03-24T05:33:09.270Z,99.99
2018-03-24T05:34:09.234Z,99.99
2018-03-24T05:35:09.218Z,99.99
2018-03-24T05:36:09.208Z,99.99
2018-03-24T05:37:09.192Z,99.99
2018-03-24T05:38:09.180Z,99.99
2018-03-24T05:39:09.161Z,99.99
2018-03-24T05:40:09.121Z,99.99
2018-03-24T05:41:09.103Z,99.99
2018-03-24T05:42:09.105Z,99.99
2018-03-24T05:43:09.154Z,99.99
2018-03-24T05:44:09.051Z,99.99
2018-03-24T05:45:09.052Z,99.99
2018-03-24T05:46:09.029Z,99.99
2018-03-24T05:47:09.000Z,99.99
2018-03-24T05:48:08.985Z,99.99
2018-03-24T05:49:09.132Z,99.99
2018-03-24T05:50:08.963Z,99.99
2018-03-24T05:51:08.944Z,99.99
2018-03-24T05:52:08.926Z,99.99
2018-03-24T05:53:08.903Z,99.99
2018-03-24T05:54:08.914Z,99.99
2018-03-24T05:55:08.873Z,99.99
2018-03-24T05:56:08.841Z,99.99
2018-03-24T05:57:08.852Z,99.99
2018-03-24T05:58:08.825Z,99.99
2018-03-24T05:59:09.093Z,99.99
2018-03-24T06:00:08.790Z,99.99
2018-03-24T06:01:08.793Z,99.99
2018-03-24T06:02:08.735Z,99.99
2018-03-24T06:03:08.748Z,99.99
2018-03-24T06:04:08.731Z,99.99
2018-03-24T06:05:08.726Z,99.99
2018-03-24T06:06:08.696Z,99.99
2018-03-24T06:07:08.661Z,99.99
2018-03-24T06:08:08.636Z,99.99
2018-03-24T06:09:08.633Z,99.99
2018-03-24T06:10:08.635Z,99.99
2018-03-24T06:11:08.592Z,99.99
2018-03-24T06:12:08.586Z,99.99
2018-03-24T06:13:08.571Z,99.99
2018-03-24T06:14:08.538Z,99.99
2018-03-24T06:15:08.571Z,99.99
2018-03-24T06:16:08.502Z,99.99
2018-03-24T06:17:08.475Z,99.99
2018-03-24T06:18:08.464Z,99.99
2018-03-24T06:19:08.454Z,99.99
2018-03-24T06:20:08.426Z,99.99
2018-03-24T06:21:08.481Z,99.99
2018-03-24T06:22:08.426Z,99.99
2018-03-24T06:23:08.399Z,99.99
2018-03-24T06:24:08.371Z,99.99
2018-03-24T06:25:08.350Z,99.99
2018-03-24T06:26:08.330Z,99.99
2018-03-24T06:27:08.326Z,99.99
2018-03-24T06:28:08.297Z,99.99
2018-03-24T06:29:08.288Z,99.99
2018-03-24T06:30:08.259Z,99.99
2018-03-24T06:31:08.234Z,99.99
2018-03-24T06:32:08.245Z,99.99
2018-03-24T06:33:08.220Z,99.99
2018-03-24T06:34:08.188Z,99.99
2018-03-24T06:35:08.186Z,99.99
2018-03-24T06:36:08.211Z,99.99
2018-03-24T06:37:08.134Z,99.99
2018-03-24T06:38:08.170Z,99.99
2018-03-24T06:39:08.185Z,99.99
2018-03-24T06:40:08.098Z,99.99
2018-03-24T06:41:08.075Z,99.99
2018-03-24T06:42:08.063Z,99.99
2018-03-24T06:43:08.033Z,99.99
2018-03-24T06:44:08.026Z,99.99
2018-03-24T06:45:08.030Z,99.99
2018-03-24T06:46:08.000Z,99.99
2018-03-24T06:47:07.982Z,99.99
2018-03-24T06:48:07.949Z,99.99
2018-03-24T06:49:07.933Z,99.99
2018-03-24T06:50:07.921Z,99.99
2018-03-24T06:51:07.906Z,99.99
2018-03-24T06:52:07.885Z,99.99
2018-03-24T06:53:07.884Z,99.99
2018-03-24T06:54:07.851Z,99.99
2018-03-24T06:55:07.827Z,99.99
2018-03-24T06:56:07.822Z,99.99
2018-03-24T06:57:07.841Z,99.99
2018-03-24T06:58:07.782Z,99.99
2018-03-24T06:59:07.765Z,99.99
2018-03-24T07:00:07.788Z,99.99
2018-03-24T07:01:07.740Z,99.99
2018-03-24T07:02:07.726Z,99.99
2018-03-24T07:03:07.698Z,99.99
2018-03-24T07:04:07.691Z,99.99
2018-03-24T07:05:07.687Z,99.99
2018-03-24T07:06:07.650Z,99.99
2018-03-24T07:07:07.619Z,99.99
2018-03-24T07:08:07.622Z,99.99
2018-03-24T07:09:07.623Z,99.99
2018-03-24T07:10:07.582Z,99.99
2018-03-24T07:11:07.560Z,99.99
2018-03-24T07:12:07.545Z,99.99
2018-03-24T07:13:07.532Z,99.99
2018-03-24T07:14:07.536Z,99.99
2018-03-24T07:15:07.492Z,99.99
2018-03-24T07:16:07.478Z,99.99
2018-03-24T07:17:07.470Z,99.99
2018-03-24T07:18:07.436Z,99.99
2018-03-24T07:19:07.509Z,99.99
2018-03-24T07:20:07.412Z,99.99
2018-03-24T07:21:07.403Z,99.99
2018-03-24T07:22:07.370Z,99.99
2018-03-24T07:23:07.366Z,99.99
2018-03-24T07:24:07.380Z,99.99
2018-03-24T07:25:07.329Z,99.99
2018-03-24T07:26:07.325Z,99.99
2018-03-24T07:27:07.285Z,99.99
2018-03-24T07:28:07.280Z,99.99
2018-03-24T07:29:07.304Z,99.99
2018-03-24T07:30:07.237Z,99.99
2018-03-24T07:31:07.245Z,99.99
2018-03-24T07:32:07.209Z,99.99
2018-03-24T07:33:07.204Z,99.99
2018-03-24T07:34:07.225Z,99.99
2018-03-24T07:35:07.553Z,99.99
2018-03-24T07:36:07.163Z,99.99
2018-03-24T07:37:07.143Z,99.99
2018-03-24T07:38:07.109Z,99.99
2018-03-24T07:39:07.122Z,99.99
2018-03-24T07:40:07.081Z,99.99
2018-03-24T07:41:07.099Z,99.99
2018-03-24T07:42:07.046Z,99.99
2018-03-24T07:43:07.034Z,99.99
2018-03-24T07:44:07.023Z,99.99
2018-03-24T07:45:07.013Z,99.99
2018-03-24T07:46:06.986Z,99.99
2018-03-24T07:47:06.968Z,99.99
2018-03-24T07:48:06.945Z,99.99
2018-03-24T07:49:06.956Z,99.99
2018-03-24T07:50:06.914Z,99.99
2018-03-24T07:51:06.934Z,99.99
2018-03-24T07:52:06.944Z,99.99
2018-03-24T07:53:06.868Z,99.99
2018-03-24T07:54:06.951Z,99.99
2018-03-24T07:55:06.852Z,99.99
2018-03-24T07:56:06.834Z,99.99
2018-03-24T07:57:06.797Z,99.99
2018-03-24T07:58:06.826Z,99.99
2018-03-24T07:59:06.770Z,99.99
2018-03-24T08:00:06.768Z,99.99
2018-03-24T08:01:06.769Z,99.99
2018-03-24T08:02:06.730Z,99.99
2018-03-24T08:03:06.756Z,99.99
2018-03-24T08:04:06.701Z,99.99
2018-03-24T08:05:06.685Z,99.99
2018-03-24T08:06:06.671Z,99.99
2018-03-24T08:07:06.654Z,99.99
2018-03-24T08:08:06.637Z,99.99
2018-03-24T08:09:06.653Z,99.99
2018-03-24T08:10:06.670Z,99.99
2018-03-24T08:11:06.609Z,99.99
2018-03-24T08:12:06.579Z,99.99
2018-03-24T08:13:06.545Z,99.99
2018-03-24T08:14:06.534Z,99.99
2018-03-24T08:15:06.530Z,99.99
2018-03-24T08:16:06.521Z,99.99
2018-03-24T08:17:06.501Z,99.99
2018-03-24T08:18:06.479Z,99.99
2018-03-24T08:19:06.486Z,99.99
2018-03-24T08:20:06.464Z,99.99
2018-03-24T08:21:06.468Z,99.99
2018-03-24T08:22:06.452Z,99.99
2018-03-24T08:23:06.390Z,99.99
2018-03-24T08:24:06.378Z,99.99
2018-03-24T08:25:06.373Z,99.99
2018-03-24T08:26:06.379Z,99.99
2018-03-24T08:27:06.343Z,99.99
2018-03-24T08:28:06.347Z,99.99
2018-03-24T08:29:06.310Z,99.99
2018-03-24T08:30:06.642Z,99.99
2018-03-24T08:31:06.284Z,99.99
2018-03-24T08:32:06.270Z,99.99
2018-03-24T08:39:16.892Z,99.99
2018-03-24T08:47:56.226Z,99.99
2018-03-24T08:48:51.513Z,99.99
2018-03-24T08:50:01.765Z,99.99
2018-03-24T08:53:21.865Z,99.99
2018-03-24T08:54:23.490Z,99.99
2018-03-24T08:55:21.990Z,99.99
2018-03-24T08:56:21.778Z,99.99
2018-03-24T08:57:22.350Z,99.99
2018-03-24T08:58:21.713Z,99.99
2018-03-24T08:59:21.811Z,99.99
2018-03-24T09:00:21.712Z,99.99
2018-03-24T09:01:22.344Z,99.99
2018-03-24T09:02:22.429Z,98.45
2018-03-24T09:03:21.705Z,97.41
2018-03-24T09:04:21.628Z,96.74
2018-03-24T09:05:22.327Z,96.26
2018-03-24T09:06:21.715Z,95.60
2018-03-24T09:07:21.629Z,94.84
2018-03-24T09:08:21.598Z,94.56
2018-03-24T09:09:21.582Z,93.23
2018-03-24T09:10:21.587Z,93.70
2018-03-24T09:11:21.575Z,93.99
2018-03-24T09:12:22.334Z,93.04
2018-03-24T09:13:21.934Z,92.75
2018-03-24T09:14:21.559Z,93.04
2018-03-24T09:15:21.474Z,93.13
2018-03-24T09:16:21.505Z,93.60
2018-03-24T09:17:21.479Z,94.56
2018-03-24T09:18:21.440Z,94.51
2018-03-24T09:19:21.485Z,94.60
2018-03-24T09:24:47.738Z,94.22
2018-03-24T09:25:47.615Z,94.32
2018-03-24T09:26:48.042Z,94.60
2018-03-24T09:27:47.577Z,95.17
2018-03-24T09:28:47.488Z,94.89
2018-03-24T09:29:47.482Z,95.41
2018-03-24T09:30:47.466Z,94.42
2018-03-24T09:31:47.474Z,92.41
2018-03-24T09:32:48.152Z,93.18
2018-03-24T09:33:47.638Z,93.41
2018-03-24T09:34:47.416Z,93.60
2018-03-24T09:35:47.382Z,93.51
2018-03-24T09:36:47.377Z,94.27
2018-03-24T09:37:47.370Z,94.46
2018-03-24T09:38:47.346Z,94.65
2018-03-24T09:39:47.345Z,94.27
2018-03-24T09:40:47.331Z,94.56
2018-03-24T09:41:47.309Z,94.84
2018-03-24T09:42:47.315Z,94.56
2018-03-24T09:43:47.281Z,94.56
2018-03-24T09:44:47.336Z,94.84
2018-03-24T09:45:47.264Z,94.46
2018-03-24T09:46:47.950Z,93.51
2018-03-24T09:47:47.247Z,93.84
2018-03-24T09:48:58.125Z,94.32
2018-03-24T09:49:59.773Z,93.65
2018-03-24T09:50:47.229Z,93.65
2018-03-24T09:51:47.201Z,94.70
2018-03-24T09:52:47.228Z,94.42
2018-03-24T09:53:47.337Z,94.60
2018-03-24T09:54:47.180Z,94.42
2018-03-24T09:55:47.207Z,94.70
2018-03-24T09:56:47.144Z,94.42
2018-03-24T09:57:47.111Z,94.51
2018-03-24T09:58:47.106Z,94.22
2018-03-24T09:59:47.100Z,94.60
2018-03-24T10:00:47.092Z,94.51
2018-03-24T10:01:47.108Z,94.42
2018-03-24T10:02:47.074Z,95.32
2018-03-24T10:03:47.038Z,94.65
2018-03-24T10:04:47.053Z,94.89
2018-03-24T10:05:47.053Z,93.98
2018-03-24T10:06:47.065Z,93.84
2018-03-24T10:07:46.993Z,94.32
2018-03-24T10:08:47.018Z,94.27
2018-03-24T10:09:46.969Z,94.37
2018-03-24T10:10:46.959Z,94.17
2018-03-24T10:11:46.952Z,94.27
2018-03-24T10:12:46.942Z,94.46
2018-03-24T10:13:46.975Z,94.56
2018-03-24T10:14:46.924Z,94.56
2018-03-24T10:15:46.899Z,94.46
2018-03-24T10:16:46.970Z,94.46
2018-03-24T10:17:46.904Z,94.17
2018-03-24T10:18:46.896Z,92.94
2018-03-24T10:19:46.860Z,91.51
2018-03-24T10:20:46.847Z,90.75
2018-03-24T10:21:46.852Z,90.46
2018-03-24T10:22:46.839Z,90.27
2018-03-24T10:23:46.821Z,89.89
2018-03-24T10:24:46.818Z,90.65
2018-03-24T10:25:46.795Z,90.84
2018-03-24T10:26:46.786Z,90.75
2018-03-24T10:27:46.792Z,90.56
2018-03-24T10:28:46.766Z,89.41
2018-03-24T10:29:46.764Z,88.93
2018-03-24T10:30:46.738Z,89.70
2018-03-24T10:31:46.742Z,89.36
2018-03-24T10:32:47.090Z,89.03
2018-03-24T10:33:46.737Z,87.17
2018-03-24T10:34:46.713Z,87.13
2018-03-24T10:35:46.693Z,87.46
2018-03-24T10:36:46.678Z,87.55
2018-03-24T10:37:46.683Z,87.65
2018-03-24T10:38:46.687Z,88.41
2018-03-24T10:39:46.648Z,88.22
2018-03-24T10:40:46.658Z,88.51
2018-03-24T10:41:46.639Z,87.65
2018-03-24T10:42:46.630Z,86.12
2018-03-24T10:43:46.636Z,86.51
2018-03-24T10:44:46.631Z,87.21
2018-03-24T10:45:46.615Z,87.21
2018-03-24T10:46:46.593Z,86.26
2018-03-24T10:47:46.572Z,84.45
2018-03-24T10:48:46.576Z,84.26
2018-03-24T10:49:46.617Z,85.12
2018-03-24T10:50:46.558Z,85.02
2018-03-24T10:51:46.567Z,84.83
2018-03-24T10:52:46.529Z,85.78
2018-03-24T10:53:46.519Z,85.41
2018-03-24T10:54:46.506Z,86.11
2018-03-24T10:55:46.538Z,85.83
2018-03-24T10:56:46.507Z,85.06
2018-03-24T10:57:46.484Z,85.25
2018-03-24T10:58:46.487Z,84.20
2018-03-24T10:59:46.498Z,84.01
2018-03-24T11:00:46.472Z,84.30
2018-03-24T11:01:46.498Z,84.01
2018-03-24T11:02:46.465Z,82.97
2018-03-24T11:03:46.468Z,82.24
2018-03-24T11:04:46.429Z,82.63
2018-03-24T11:05:46.427Z,83.77
2018-03-24T11:06:46.422Z,84.25
2018-03-24T11:07:46.421Z,83.77
2018-03-24T11:08:46.422Z,82.76
2018-03-24T11:09:46.429Z,81.90
2018-03-24T11:10:46.386Z,82.76
2018-03-24T11:11:46.738Z,83.53
2018-03-24T11:12:46.389Z,79.80
2018-03-24T11:13:46.384Z,76.75
2018-03-24T11:14:46.362Z,74.46
2018-03-24T11:15:46.367Z,75.13
2018-03-24T11:16:46.354Z,74.37
2018-03-24T11:17:46.723Z,74.65
2018-03-24T11:18:46.338Z,74.74
2018-03-24T11:19:46.332Z,75.51
2018-03-24T11:20:46.339Z,76.84
2018-03-24T11:21:46.326Z,77.32
2018-03-24T11:22:46.338Z,77.23
2018-03-24T11:23:46.353Z,77.42
2018-03-24T11:24:46.309Z,78.31
2018-03-24T11:25:46.313Z,79.17
2018-03-24T11:26:46.298Z,79.17
2018-03-24T11:27:46.311Z,79.46
2018-03-24T11:28:46.307Z,79.75
2018-03-24T11:29:46.283Z,76.03
2018-03-24T11:30:46.265Z,76.16
2018-03-24T11:31:46.303Z,75.78
2018-03-24T11:32:46.252Z,77.01
2018-03-24T11:33:46.262Z,74.82
2018-03-24T11:34:46.244Z,72.81
2018-03-24T11:35:46.234Z,73.67
2018-03-24T11:36:46.582Z,73.19
2018-03-24T11:37:46.224Z,72.05
2018-03-24T11:38:46.219Z,74.24
2018-03-24T11:39:46.208Z,75.68
2018-03-24T11:40:46.219Z,75.39
2018-03-24T11:41:46.222Z,75.01
2018-03-24T11:42:46.244Z,69.82
2018-03-24T11:43:46.182Z,68.96
2018-03-24T11:44:46.178Z,70.39
2018-03-24T11:45:46.172Z,72.30
2018-03-24T11:46:46.182Z,74.40
2018-03-24T11:47:46.233Z,76.21
2018-03-24T11:48:46.161Z,77.45
2018-03-24T11:49:46.153Z,76.35
2018-03-24T11:50:46.154Z,75.68
2018-03-24T11:51:46.143Z,75.10
2018-03-24T11:52:46.145Z,71.00
2018-03-24T11:53:46.272Z,72.14
2018-03-24T11:54:46.116Z,73.67
2018-03-24T11:55:46.113Z,75.43
2018-03-24T11:56:46.123Z,76.20
2018-03-24T11:57:46.127Z,74.95
2018-03-24T11:58:46.109Z,74.04
2018-03-24T11:59:46.137Z,72.88
2018-03-24T12:00:46.110Z,70.21
2018-03-24T12:01:46.086Z,72.41
2018-03-24T12:02:46.120Z,71.64
2018-03-24T12:03:46.070Z,68.71
2018-03-24T12:04:46.067Z,66.13
2018-03-24T12:05:46.105Z,65.08
2018-03-24T12:06:46.069Z,65.61
2018-03-24T12:07:46.056Z,65.71
2018-03-24T12:08:46.051Z,67.05
2018-03-24T12:09:46.060Z,67.72
2018-03-24T12:10:46.042Z,67.72
2018-03-24T12:11:46.057Z,67.63
2018-03-24T12:12:46.033Z,68.87
2018-03-24T12:13:46.037Z,66.63
2018-03-24T12:14:46.038Z,66.83
2018-03-24T12:15:46.102Z,68.07
2018-03-24T12:16:46.024Z,68.07
2018-03-24T12:17:46.005Z,67.97
2018-03-24T12:18:46.013Z,69.12
2018-03-24T12:19:45.990Z,64.43
2018-03-24T12:20:45.991Z,65.68
2018-03-24T12:21:46.004Z,66.35
2018-03-24T12:22:45.986Z,63.76
2018-03-24T12:23:45.993Z,65.39
2018-03-24T12:24:45.973Z,65.42
2018-03-24T12:25:45.964Z,64.91
2018-03-24T12:26:46.007Z,65.90
2018-03-24T12:27:45.963Z,64.56
2018-03-24T12:28:45.947Z,64.56
2018-03-24T12:29:45.947Z,64.75
2018-03-24T12:30:45.937Z,66.06
2018-03-24T12:31:45.975Z,64.82
2018-03-24T12:32:45.957Z,65.20
2018-03-24T12:33:45.934Z,64.15
2018-03-24T12:34:45.929Z,63.76
2018-03-24T12:35:45.934Z,61.38
2018-03-24T12:36:45.957Z,60.71
2018-03-24T12:37:45.918Z,59.18
2018-03-24T12:38:45.906Z,61.09
2018-03-24T12:39:45.897Z,61.95
2018-03-24T12:40:45.879Z,62.52
2018-03-24T12:41:45.894Z,62.43
2018-03-24T12:42:45.901Z,62.04
2018-03-24T12:43:45.943Z,62.33
2018-03-24T12:44:45.853Z,62.90
2018-03-24T12:45:45.920Z,61.76
2018-03-24T12:46:45.852Z,62.04
2018-03-24T12:47:45.839Z,61.95
2018-03-24T12:48:45.837Z,64.05
2018-03-24T12:49:45.871Z,63.67
2018-03-24T12:50:45.821Z,62.43
2018-03-24T12:51:45.843Z,63.67
2018-03-24T12:52:45.807Z,63.86
2018-03-24T12:53:45.803Z,60.23
2018-03-24T12:54:45.821Z,59.94
2018-03-24T12:55:45.791Z,61.28
2018-03-24T12:56:46.145Z,62.24
2018-03-24T12:57:45.779Z,62.33
2018-03-24T12:58:45.771Z,63.48
2018-03-24T12:59:45.789Z,63.96
2018-03-24T13:00:45.783Z,63.86
2018-03-24T13:01:45.766Z,63.76
2018-03-24T13:02:45.784Z,65.48
2018-03-24T13:03:45.743Z,66.25
2018-03-24T13:04:45.750Z,66.25
2018-03-24T13:05:45.723Z,66.54
2018-03-24T13:06:45.766Z,65.68
2018-03-24T13:07:45.722Z,66.16
2018-03-24T13:08:45.709Z,67.08
2018-03-24T13:09:45.716Z,67.65
2018-03-24T13:10:45.707Z,65.64
2018-03-24T13:11:45.695Z,65.74
2018-03-24T13:12:45.707Z,66.03